Time;durP1;ratioP1;P1;durP2;ratioP2;P2;SDS_P1;SDS_P2;PMS_P1;PMS_P2;Temp;Humidity;BMP_temperature;BMP_pressure;BME280_temperature;BME280_humidity;BME280_pressure;Samples;Min_cycle;Max_cycle;Signal;HPM_P1;HPM_P2
2021/11/10 00:01:59;;;;;;;12.17;10.97;;;7.90;99.90;;;;;;5032246;28;20464;-49
2021/11/10 00:04:26;;;;;;;13.10;10.43;;;7.90;99.90;;;;;;5033905;28;20614;-49
2021/11/10 00:06:53;;;;;;;15.13;10.97;;;8.30;99.90;;;;;;5033720;28;20920;-49
2021/11/10 00:09:21;;;;;;;13.90;10.17;;;8.00;99.90;;;;;;5033325;28;20435;-49
2021/11/10 00:11:47;;;;;;;16.50;10.57;;;8.00;99.90;;;;;;5032097;28;20487;-49
2021/11/10 00:14:18;;;;;;;11.50;10.30;;;8.10;99.90;;;;;;5033577;28;20844;-49
2021/11/10 00:16:44;;;;;;;15.87;10.80;;;8.30;99.90;;;;;;5033469;28;20892;-50
2021/11/10 00:19:11;;;;;;;15.43;11.47;;;7.80;99.90;;;;;;5033279;28;20474;-49
2021/11/10 00:21:38;;;;;;;16.37;11.70;;;7.90;99.90;;;;;;5033365;28;21002;-49
2021/11/10 00:24:07;;;;;;;15.23;10.50;;;8.00;99.90;;;;;;5033492;28;20923;-50
2021/11/10 00:26:34;;;;;;;13.60;10.53;;;8.00;99.90;;;;;;5033376;28;20439;-51
2021/11/10 00:29:01;;;;;;;15.10;11.60;;;7.90;99.90;;;;;;5031475;28;20454;-49
2021/11/10 00:31:28;;;;;;;12.20;10.67;;;8.00;99.90;;;;;;5031542;28;20466;-50
2021/11/10 00:33:55;;;;;;;12.37;10.70;;;7.80;99.90;;;;;;5033181;28;20402;-50
2021/11/10 00:36:21;;;;;;;12.17;10.47;;;8.50;99.90;;;;;;5033167;28;20438;-49
2021/11/10 00:38:48;;;;;;;14.70;11.73;;;7.90;99.90;;;;;;5031413;28;20426;-49
2021/11/10 00:41:16;;;;;;;12.33;9.37;;;7.90;99.90;;;;;;5031919;28;20663;-48
2021/11/10 00:43:42;;;;;;;12.90;10.10;;;8.30;99.90;;;;;;5031708;28;20791;-49
2021/11/10 00:46:10;;;;;;;12.03;10.53;;;8.30;99.90;;;;;;5033080;28;20445;-49
2021/11/10 00:48:37;;;;;;;11.20;10.00;;;7.80;99.90;;;;;;5031334;28;20443;-49
2021/11/10 00:51:04;;;;;;;19.90;12.57;;;8.00;99.90;;;;;;5032762;28;20479;-50
2021/11/10 00:53:32;;;;;;;13.80;10.77;;;7.90;99.90;;;;;;5032028;28;20923;-49
2021/11/10 00:55:59;;;;;;;15.30;11.33;;;8.00;99.90;;;;;;5032794;28;20696;-49
2021/11/10 00:58:27;;;;;;;12.10;9.90;;;8.30;99.90;;;;;;5031229;28;20424;-49
2021/11/10 01:00:54;;;;;;;13.10;10.87;;;7.90;99.90;;;;;;5031394;28;20463;-49
2021/11/10 01:03:22;;;;;;;13.10;11.30;;;7.80;99.90;;;;;;5032575;28;20438;-49
2021/11/10 01:05:49;;;;;;;15.20;11.30;;;7.80;99.90;;;;;;5031238;28;20997;-49
2021/11/10 01:08:15;;;;;;;18.43;12.10;;;8.30;99.90;;;;;;5030827;28;20466;-50
2021/11/10 01:10:42;;;;;;;15.37;10.80;;;7.40;99.90;;;;;;5032461;28;20449;-49
2021/11/10 01:13:09;;;;;;;14.00;11.37;;;7.30;99.90;;;;;;5032436;28;20949;-50
2021/11/10 01:15:39;;;;;;;18.50;10.70;;;7.70;99.90;;;;;;5031211;28;20457;-50
2021/11/10 01:18:06;;;;;;;17.20;11.20;;;7.80;99.90;;;;;;5030632;28;20441;-49
2021/11/10 01:20:34;;;;;;;14.53;11.50;;;8.00;99.90;;;;;;5030598;28;21055;-51
2021/11/10 01:23:01;;;;;;;14.43;10.77;;;8.10;99.90;;;;;;5030992;28;20488;-51
2021/11/10 01:25:29;;;;;;;12.70;11.13;;;7.60;99.90;;;;;;5030933;28;20455;-50
2021/11/10 01:27:56;;;;;;;18.63;12.20;;;7.60;99.90;;;;;;5030622;28;20515;-50
2021/11/10 01:30:24;;;;;;;14.00;11.30;;;7.70;99.90;;;;;;5030772;28;20468;-50
2021/11/10 01:32:52;;;;;;;14.40;10.70;;;7.80;99.90;;;;;;5030643;28;20584;-50
2021/11/10 01:35:19;;;;;;;12.70;11.07;;;7.60;99.90;;;;;;5030740;28;20454;-51
2021/11/10 01:37:47;;;;;;;16.10;11.20;;;8.10;99.90;;;;;;5030344;28;20458;-50
2021/11/10 01:40:15;;;;;;;13.20;10.80;;;7.80;99.90;;;;;;5030620;28;20424;-50
2021/11/10 01:42:43;;;;;;;14.80;12.33;;;7.40;99.90;;;;;;5030675;28;20832;-50
2021/11/10 01:45:13;;;;;;;14.60;11.27;;;7.30;99.90;;;;;;5030623;28;20452;-50
2021/11/10 01:47:40;;;;;;;12.90;10.53;;;7.00;99.90;;;;;;5031526;28;20702;-52
2021/11/10 01:50:13;;;;;;;14.20;10.70;;;7.60;99.90;;;;;;5030475;28;20460;-51
2021/11/10 01:52:42;;;;;;;12.60;10.13;;;7.60;99.90;;;;;;5030521;28;20485;-51
2021/11/10 01:55:10;;;;;;;15.60;10.93;;;7.40;99.90;;;;;;5031729;28;21043;-52
2021/11/10 01:57:39;;;;;;;14.67;10.80;;;7.40;99.90;;;;;;5030137;28;20488;-51
2021/11/10 02:00:11;;;;;;;14.80;9.83;;;7.60;99.90;;;;;;5030398;28;20524;-49
2021/11/10 02:02:46;;;;;;;18.93;13.73;;;7.80;99.90;;;;;;5032139;28;20415;-50
2021/11/10 02:05:17;;;;;;;13.73;11.23;;;7.40;99.90;;;;;;5030382;28;20453;-50
2021/11/10 02:07:44;;;;;;;12.70;10.43;;;7.50;99.90;;;;;;5030053;28;20827;-51
2021/11/10 02:10:15;;;;;;;15.07;11.60;;;7.40;99.90;;;;;;5031616;28;20522;-51
2021/11/10 02:12:43;;;;;;;18.60;12.17;;;7.50;99.90;;;;;;5030321;28;21074;-50
2021/11/10 02:15:12;;;;;;;13.57;11.47;;;7.60;99.90;;;;;;5030423;28;20564;-50
2021/11/10 02:17:38;;;;;;;12.87;11.10;;;6.90;99.90;;;;;;5029988;28;20456;-50
2021/11/10 02:20:07;;;;;;;12.17;10.73;;;6.60;99.90;;;;;;5030082;28;20449;-50
2021/11/10 02:22:39;;;;;;;15.40;11.93;;;7.30;99.90;;;;;;5030806;28;20727;-49
2021/11/10 02:25:08;;;;;;;15.17;11.37;;;7.40;99.90;;;;;;5031474;28;20402;-49
2021/11/10 02:27:35;;;;;;;16.33;12.83;;;7.40;99.90;;;;;;5030172;28;20457;-50
2021/11/10 02:30:05;;;;;;;13.90;11.50;;;7.40;99.90;;;;;;5030020;28;20444;-50
2021/11/10 02:32:34;;;;;;;12.93;11.00;;;7.40;99.90;;;;;;5030151;28;20556;-50
2021/11/10 02:35:01;;;;;;;15.90;11.40;;;7.20;99.90;;;;;;5030076;28;20447;-50
2021/11/10 02:37:28;;;;;;;22.60;12.33;;;7.20;99.90;;;;;;5030008;28;20433;-50
2021/11/10 02:39:55;;;;;;;13.93;10.53;;;7.30;99.90;;;;;;5030991;28;20439;-50
2021/11/10 02:42:23;;;;;;;14.53;11.47;;;7.70;99.90;;;;;;5030004;28;20480;-50
2021/11/10 02:44:51;;;;;;;14.17;11.00;;;7.20;99.90;;;;;;5031209;28;20443;-49
2021/11/10 02:47:19;;;;;;;18.20;12.23;;;7.70;99.90;;;;;;5029969;28;20476;-50
2021/11/10 02:49:46;;;;;;;17.30;11.83;;;7.10;99.90;;;;;;5029546;28;20507;-50
2021/11/10 02:52:16;;;;;;;12.17;10.73;;;6.60;99.90;;;;;;5031043;28;21031;-50
2021/11/10 02:54:45;;;;;;;15.30;11.50;;;7.20;99.90;;;;;;5031400;28;20419;-50
2021/11/10 02:57:13;;;;;;;16.83;11.57;;;7.00;99.90;;;;;;5031211;28;20412;-50
2021/11/10 02:59:40;;;;;;;13.30;11.40;;;7.00;99.90;;;;;;5030832;28;20437;-50
2021/11/10 03:02:08;;;;;;;12.77;11.10;;;7.10;99.90;;;;;;5029852;28;20495;-51
2021/11/10 03:04:37;;;;;;;14.30;11.87;;;7.00;99.90;;;;;;5029746;28;20512;-50
2021/11/10 03:07:05;;;;;;;15.17;12.40;;;7.40;99.90;;;;;;5029740;28;20456;-50
2021/11/10 03:09:34;;;;;;;14.30;12.77;;;6.90;99.90;;;;;;5029408;28;20506;-50
2021/11/10 03:12:10;;;;;;;19.43;14.20;;;7.30;99.90;;;;;;5029699;28;20513;-49
2021/11/10 03:14:39;;;;;;;18.40;13.27;;;7.00;99.90;;;;;;5029824;28;20541;-50
2021/11/10 03:17:08;;;;;;;13.83;12.33;;;7.00;99.90;;;;;;5032340;28;20890;-50
2021/11/10 03:19:37;;;;;;;15.93;11.67;;;6.40;99.90;;;;;;5032903;28;20449;-50
2021/11/10 03:22:06;;;;;;;19.27;12.00;;;6.90;99.90;;;;;;5033112;28;20490;-50
2021/11/10 03:24:33;;;;;;;14.63;11.27;;;7.00;99.90;;;;;;5033155;28;20449;-50
2021/11/10 03:27:01;;;;;;;18.97;12.77;;;7.30;99.90;;;;;;5033163;28;20450;-50
2021/11/10 03:29:29;;;;;;;16.80;12.00;;;6.60;99.90;;;;;;5033007;28;20503;-50
2021/11/10 03:31:57;;;;;;;18.97;12.63;;;6.90;99.90;;;;;;5033026;28;20567;-50
2021/11/10 03:34:24;;;;;;;19.90;11.87;;;6.50;99.90;;;;;;5032963;28;20480;-50
2021/11/10 03:36:51;;;;;;;20.87;12.93;;;7.00;99.90;;;;;;5034313;28;20430;-49
2021/11/10 03:39:19;;;;;;;15.17;13.27;;;6.60;99.90;;;;;;5032553;28;20432;-50
2021/11/10 03:41:46;;;;;;;18.87;13.00;;;6.80;99.90;;;;;;5034178;28;20450;-51
2021/11/10 03:44:13;;;;;;;15.43;11.80;;;6.60;99.90;;;;;;5032809;28;20539;-50
2021/11/10 03:46:45;;;;;;;18.23;12.67;;;6.80;99.90;;;;;;5032789;28;20456;-50
2021/11/10 03:49:15;;;;;;;18.43;12.83;;;6.60;99.90;;;;;;5032437;28;20448;-50
2021/11/10 03:51:44;;;;;;;16.53;12.47;;;7.00;99.90;;;;;;5032749;28;20461;-50
2021/11/10 03:54:12;;;;;;;14.50;12.93;;;6.20;99.90;;;;;;5034123;28;20430;-50
2021/11/10 03:56:39;;;;;;;16.60;12.60;;;6.70;99.90;;;;;;5032579;28;20461;-50
2021/11/10 03:59:07;;;;;;;14.17;12.53;;;6.60;99.90;;;;;;5032390;28;20456;-50
2021/11/10 04:01:34;;;;;;;16.70;13.27;;;6.00;99.90;;;;;;5032428;28;20482;-50
2021/11/10 04:04:03;;;;;;;22.20;15.90;;;6.70;99.90;;;;;;5032457;28;20519;-50
2021/11/10 04:06:31;;;;;;;17.83;12.37;;;6.80;99.90;;;;;;5032377;28;20899;-49
2021/11/10 04:08:59;;;;;;;16.57;12.63;;;6.50;99.90;;;;;;5032002;28;20508;-50
2021/11/10 04:11:26;;;;;;;20.47;12.57;;;6.60;99.90;;;;;;5032142;28;21150;-49
2021/11/10 04:13:53;;;;;;;13.60;11.70;;;6.30;99.90;;;;;;5032305;28;20566;-50
2021/11/10 04:16:23;;;;;;;14.20;12.00;;;6.50;99.90;;;;;;5032306;28;20448;-49
2021/11/10 04:18:55;;;;;;;16.70;12.93;;;6.30;99.90;;;;;;5031810;28;20515;-50
2021/11/10 04:21:25;;;;;;;15.90;12.30;;;6.10;99.90;;;;;;5031986;28;20896;-50
2021/11/10 04:23:57;;;;;;;15.70;12.53;;;6.50;99.90;;;;;;5033237;28;20826;-49
2021/11/10 04:26:27;;;;;;;14.10;11.90;;;6.50;99.90;;;;;;5032022;28;20455;-50
2021/11/10 04:28:56;;;;;;;18.30;13.40;;;6.50;99.90;;;;;;5031694;28;20428;-49
2021/11/10 04:31:23;;;;;;;16.00;13.00;;;6.30;99.90;;;;;;5031770;28;20507;-49
2021/11/10 04:33:51;;;;;;;16.37;12.40;;;6.60;99.90;;;;;;5031836;28;20539;-49
2021/11/10 04:36:21;;;;;;;26.33;12.83;;;6.50;99.90;;;;;;5031562;28;20827;-50
2021/11/10 04:38:53;;;;;;;18.93;12.73;;;6.50;99.90;;;;;;5031406;28;20915;-49
2021/11/10 04:41:22;;;;;;;14.60;12.00;;;6.80;99.90;;;;;;5031778;28;20511;-50
2021/11/10 04:43:48;;;;;;;18.13;13.20;;;6.50;99.90;;;;;;5032793;28;20432;-49
2021/11/10 04:46:20;;;;;;;17.30;13.43;;;6.50;99.90;;;;;;5031517;28;20447;-50
2021/11/10 04:48:49;;;;;;;16.13;12.27;;;6.60;99.90;;;;;;5032574;28;20440;-50
2021/11/10 04:51:15;;;;;;;15.50;12.20;;;6.60;99.90;;;;;;5032993;28;20465;-50
2021/11/10 04:53:45;;;;;;;14.53;13.03;;;6.40;99.90;;;;;;5032790;28;20492;-50
2021/11/10 04:56:12;;;;;;;18.20;13.90;;;6.10;99.90;;;;;;5031499;28;20451;-50
2021/11/10 04:58:40;;;;;;;16.70;11.63;;;5.90;99.90;;;;;;5032222;28;20451;-50
2021/11/10 05:01:14;;;;;;;21.07;13.80;;;6.30;99.90;;;;;;5031195;28;20464;-50
2021/11/10 05:03:41;;;;;;;18.70;13.33;;;6.40;99.90;;;;;;5031253;28;20817;-49
2021/11/10 05:06:09;;;;;;;18.10;13.37;;;6.20;99.90;;;;;;5031096;28;20448;-50
2021/11/10 05:08:35;;;;;;;22.20;12.60;;;6.40;99.90;;;;;;5032231;28;20398;-49
2021/11/10 05:11:03;;;;;;;16.50;12.37;;;6.30;99.90;;;;;;5031153;28;20504;-49
2021/11/10 05:13:30;;;;;;;19.87;13.77;;;6.50;99.90;;;;;;5032393;28;20545;-50
2021/11/10 05:15:58;;;;;;;16.80;13.30;;;6.40;99.90;;;;;;5030911;28;20489;-50
2021/11/10 05:18:26;;;;;;;19.83;12.53;;;6.20;99.90;;;;;;5030490;28;20487;-50
2021/11/10 05:20:53;;;;;;;19.37;12.10;;;6.40;99.90;;;;;;5030868;28;20989;-50
2021/11/10 05:23:22;;;;;;;14.70;11.50;;;6.40;99.90;;;;;;5030908;28;20971;-49
2021/11/10 05:25:50;;;;;;;15.83;12.80;;;6.80;99.90;;;;;;5032114;28;20468;-50
2021/11/10 05:28:16;;;;;;;18.43;13.13;;;6.30;99.90;;;;;;5030336;28;20440;-50
2021/11/10 05:30:44;;;;;;;17.30;13.63;;;6.40;99.90;;;;;;5031971;28;20448;-51
2021/11/10 05:33:13;;;;;;;18.50;13.47;;;6.80;99.90;;;;;;5031916;28;20508;-50
2021/11/10 05:35:40;;;;;;;24.40;14.60;;;5.80;99.90;;;;;;5031860;28;20942;-50
2021/11/10 05:38:06;;;;;;;18.67;14.83;;;6.30;99.90;;;;;;5031182;28;20437;-50
2021/11/10 05:40:34;;;;;;;18.53;13.47;;;6.10;99.90;;;;;;5031763;28;20442;-50
2021/11/10 05:43:00;;;;;;;19.37;14.30;;;6.10;99.90;;;;;;5031539;28;20868;-50
2021/11/10 05:45:27;;;;;;;18.87;13.80;;;6.80;99.90;;;;;;5031701;28;20890;-50
2021/11/10 05:47:54;;;;;;;24.30;15.00;;;5.70;99.90;;;;;;5031484;28;20452;-49
2021/11/10 05:50:22;;;;;;;24.17;14.93;;;6.60;99.90;;;;;;5031415;28;20471;-50
2021/11/10 05:52:48;;;;;;;17.73;14.57;;;6.20;99.90;;;;;;5031424;28;20477;-50
2021/11/10 05:55:16;;;;;;;21.30;13.93;;;6.30;99.90;;;;;;5030193;28;20498;-50
2021/11/10 05:57:43;;;;;;;17.67;13.17;;;6.30;99.90;;;;;;5031129;28;20441;-50
2021/11/10 06:00:12;;;;;;;17.53;13.10;;;6.00;99.90;;;;;;5031564;28;20443;-50
2021/11/10 06:02:43;;;;;;;19.23;14.30;;;6.00;99.90;;;;;;5032028;28;20436;-50
2021/11/10 06:05:11;;;;;;;15.57;13.03;;;6.20;99.90;;;;;;5031640;28;20440;-50
2021/11/10 06:07:39;;;;;;;19.83;13.40;;;6.10;99.90;;;;;;5031051;28;20402;-50
2021/11/10 06:10:07;;;;;;;20.73;16.03;;;5.70;99.90;;;;;;5029652;28;20448;-49
2021/11/10 06:12:33;;;;;;;18.90;14.70;;;6.20;99.90;;;;;;5031276;28;20801;-49
2021/11/10 06:15:00;;;;;;;19.70;13.40;;;6.20;99.90;;;;;;5031400;28;20447;-49
2021/11/10 06:17:26;;;;;;;17.50;13.60;;;6.20;99.90;;;;;;5030765;28;20441;-49
2021/11/10 06:19:53;;;;;;;18.40;13.77;;;6.10;99.90;;;;;;5030589;28;20437;-49
2021/11/10 06:22:20;;;;;;;19.80;14.80;;;6.10;99.90;;;;;;5030445;28;20472;-51
2021/11/10 06:24:48;;;;;;;23.67;15.07;;;6.20;99.90;;;;;;5030869;28;20795;-50
2021/11/10 06:27:14;;;;;;;23.37;15.27;;;6.20;99.90;;;;;;5030468;28;20445;-50
2021/11/10 06:29:41;;;;;;;21.43;16.33;;;6.10;99.90;;;;;;5030554;28;20451;-50
2021/11/10 06:32:08;;;;;;;15.53;13.10;;;6.50;99.90;;;;;;5030510;28;20453;-50
2021/11/10 06:34:35;;;;;;;16.20;14.27;;;6.20;99.90;;;;;;5030900;28;20443;-50
2021/11/10 06:37:01;;;;;;;18.70;14.80;;;6.20;99.90;;;;;;5030625;28;20540;-52
2021/11/10 06:39:28;;;;;;;23.23;15.70;;;6.20;99.90;;;;;;5029726;28;20952;-51
2021/11/10 06:41:56;;;;;;;20.67;13.77;;;5.80;99.90;;;;;;5030429;28;20471;-49
2021/11/10 06:44:23;;;;;;;20.20;15.57;;;6.10;99.90;;;;;;5030923;28;20398;-51
2021/11/10 06:46:50;;;;;;;19.67;15.17;;;6.00;99.90;;;;;;5030308;28;20441;-51
2021/11/10 06:49:16;;;;;;;24.00;14.10;;;6.30;99.90;;;;;;5029157;28;20511;-50
2021/11/10 06:51:43;;;;;;;19.97;14.90;;;6.30;99.90;;;;;;5032948;28;20434;-50
2021/11/10 06:54:10;;;;;;;23.50;13.90;;;6.40;99.90;;;;;;5034028;28;20475;-50
2021/11/10 06:56:37;;;;;;;25.87;14.37;;;6.70;99.90;;;;;;5033502;28;20440;-50
2021/11/10 06:59:05;;;;;;;22.67;14.27;;;6.20;99.90;;;;;;5033686;28;20466;-50
2021/11/10 07:01:32;;;;;;;34.10;17.20;;;6.40;99.90;;;;;;5033557;28;20460;-50
2021/11/10 07:03:59;;;;;;;22.57;15.50;;;6.50;99.90;;;;;;5034194;28;20442;-50
2021/11/10 07:06:25;;;;;;;21.80;16.50;;;5.80;99.90;;;;;;5033407;28;20441;-50
2021/11/10 07:08:52;;;;;;;25.73;17.10;;;6.40;99.90;;;;;;5033785;28;20414;-50
2021/11/10 07:11:19;;;;;;;22.20;16.03;;;6.50;99.90;;;;;;5034225;28;20488;-50
2021/11/10 07:13:46;;;;;;;19.63;15.07;;;6.40;99.90;;;;;;5033534;28;21033;-50
2021/11/10 07:16:15;;;;;;;20.80;14.40;;;6.10;99.90;;;;;;5034609;28;20429;-51
2021/11/10 07:18:42;;;;;;;23.83;15.17;;;6.50;99.90;;;;;;5033300;28;20440;-51
2021/11/10 07:21:09;;;;;;;22.20;15.77;;;6.60;99.90;;;;;;5033424;28;20514;-51
2021/11/10 07:23:36;;;;;;;19.50;14.00;;;6.50;99.90;;;;;;5033575;28;20427;-51
2021/11/10 07:26:03;;;;;;;19.67;15.40;;;6.70;99.90;;;;;;5033857;28;20436;-51
2021/11/10 07:28:30;;;;;;;24.97;15.13;;;6.40;99.90;;;;;;5032920;28;20421;-51
2021/11/10 07:30:57;;;;;;;23.60;17.23;;;6.60;99.90;;;;;;5033643;28;20546;-51
2021/11/10 07:33:25;;;;;;;18.10;14.07;;;6.60;99.90;;;;;;5033478;28;20521;-51
2021/11/10 07:35:52;;;;;;;20.63;15.70;;;6.70;99.90;;;;;;5033218;28;20762;-51
2021/11/10 07:38:23;;;;;;;20.57;15.10;;;6.70;99.90;;;;;;5033351;28;20437;-51
2021/11/10 07:40:50;;;;;;;18.83;14.70;;;6.60;99.90;;;;;;5033079;28;20452;-50
2021/11/10 07:43:17;;;;;;;19.00;15.40;;;6.70;99.90;;;;;;5033291;28;20408;-50
2021/11/10 07:45:49;;;;;;;22.10;15.73;;;6.60;99.90;;;;;;5031518;28;20547;-51
2021/11/10 07:48:16;;;;;;;20.00;15.13;;;6.80;99.90;;;;;;5031837;28;20438;-51
2021/11/10 07:50:45;;;;;;;19.57;14.43;;;7.10;99.90;;;;;;5032931;28;20531;-51
2021/11/10 07:53:11;;;;;;;18.53;15.00;;;6.90;99.90;;;;;;5033329;28;20450;-51
2021/11/10 07:55:38;;;;;;;19.27;15.13;;;6.70;99.90;;;;;;5033322;28;20501;-51
2021/11/10 07:58:05;;;;;;;18.40;15.10;;;6.90;99.90;;;;;;5032616;28;20462;-51
2021/11/10 08:00:32;;;;;;;21.47;15.20;;;7.30;99.90;;;;;;5033028;28;20471;-51
2021/11/10 08:02:59;;;;;;;24.20;15.30;;;7.00;99.90;;;;;;5033001;28;20445;-51
2021/11/10 08:05:26;;;;;;;27.47;16.63;;;7.00;99.90;;;;;;5033025;28;20925;-50
2021/11/10 08:07:54;;;;;;;24.40;17.27;;;6.80;99.90;;;;;;5032752;28;20460;-50
2021/11/10 08:10:21;;;;;;;22.33;15.77;;;6.40;99.90;;;;;;5033231;28;20877;-51
2021/11/10 08:12:48;;;;;;;25.40;18.30;;;6.90;99.90;;;;;;5033089;28;20972;-51
2021/11/10 08:15:16;;;;;;;27.87;18.03;;;6.50;99.90;;;;;;5032378;28;20472;-50
2021/11/10 08:17:44;;;;;;;23.50;16.63;;;7.00;99.90;;;;;;5032434;28;20437;-50
2021/11/10 08:20:14;;;;;;;21.90;15.00;;;6.90;99.90;;;;;;5032629;28;20457;-51
2021/11/10 08:22:41;;;;;;;21.13;16.50;;;6.90;99.90;;;;;;5032059;28;20549;-51
2021/11/10 08:25:11;;;;;;;22.83;17.70;;;6.60;99.90;;;;;;5033098;28;20430;-51
2021/11/10 08:27:38;;;;;;;22.30;17.33;;;7.10;99.90;;;;;;5032512;28;20469;-50
2021/11/10 08:30:06;;;;;;;21.67;17.50;;;7.30;99.90;;;;;;5032312;28;20425;-51
2021/11/10 08:32:34;;;;;;;23.77;16.17;;;7.30;99.90;;;;;;5032455;28;20451;-50
2021/11/10 08:35:01;;;;;;;20.07;17.30;;;7.20;99.90;;;;;;5032346;28;20479;-51
2021/11/10 08:37:28;;;;;;;27.80;17.00;;;7.50;99.90;;;;;;5032667;28;20434;-51
2021/11/10 08:39:56;;;;;;;21.87;16.27;;;7.50;99.90;;;;;;5032310;28;20457;-50
2021/11/10 08:42:24;;;;;;;19.77;16.00;;;7.30;99.90;;;;;;5031943;28;20435;-50
2021/11/10 08:44:52;;;;;;;25.80;18.27;;;7.30;99.90;;;;;;5032575;28;20473;-50
2021/11/10 08:47:21;;;;;;;19.27;14.23;;;7.60;99.90;;;;;;5032393;28;20444;-50
2021/11/10 08:49:49;;;;;;;21.90;15.07;;;7.40;99.90;;;;;;5032061;28;20952;-49
2021/11/10 08:52:15;;;;;;;20.73;15.33;;;7.60;99.90;;;;;;5030613;28;20472;-51
2021/11/10 08:54:42;;;;;;;19.43;15.47;;;7.40;99.90;;;;;;5030701;28;20951;-50
2021/11/10 08:57:09;;;;;;;21.77;16.27;;;7.50;99.90;;;;;;5031718;28;20901;-50
2021/11/10 08:59:38;;;;;;;21.47;17.20;;;7.60;99.90;;;;;;5030295;28;20455;-50
2021/11/10 09:02:05;;;;;;;21.63;16.83;;;7.50;99.90;;;;;;5031996;28;20458;-49
2021/11/10 09:04:31;;;;;;;22.70;16.40;;;7.70;99.90;;;;;;5032126;28;20918;-50
2021/11/10 09:06:58;;;;;;;23.37;17.50;;;8.20;99.90;;;;;;5032354;28;20424;-50
2021/11/10 09:09:25;;;;;;;21.90;17.70;;;7.80;99.90;;;;;;5031634;28;20450;-50
2021/11/10 09:11:51;;;;;;;21.20;16.23;;;7.80;99.90;;;;;;5031699;28;20990;-51
2021/11/10 09:14:18;;;;;;;24.37;16.07;;;7.90;99.90;;;;;;5031764;28;20490;-51
2021/11/10 09:16:47;;;;;;;22.93;16.57;;;7.60;99.90;;;;;;5031799;28;20447;-50
2021/11/10 09:19:13;;;;;;;20.33;15.63;;;7.90;99.90;;;;;;5031512;28;20870;-51
2021/11/10 09:21:40;;;;;;;20.73;16.60;;;7.20;99.90;;;;;;5031753;28;20935;-49
2021/11/10 09:24:08;;;;;;;25.63;16.93;;;7.80;99.90;;;;;;5031894;28;20429;-50
2021/11/10 09:26:35;;;;;;;25.37;16.63;;;8.30;99.90;;;;;;5031579;28;20441;-50
2021/11/10 09:29:02;;;;;;;20.13;16.83;;;7.80;99.90;;;;;;5031359;28;20924;-51
2021/11/10 09:31:29;;;;;;;23.20;18.03;;;7.80;99.90;;;;;;5031615;28;20930;-50
2021/11/10 09:34:01;;;;;;;30.07;16.83;;;7.90;99.90;;;;;;5031647;28;20473;-51
2021/11/10 09:36:28;;;;;;;22.70;16.50;;;7.70;99.90;;;;;;5031690;28;20823;-51
2021/11/10 09:38:55;;;;;;;24.60;18.53;;;8.00;99.90;;;;;;5031341;28;20438;-50
2021/11/10 09:41:22;;;;;;;19.93;17.70;;;8.30;99.90;;;;;;5031724;28;20453;-49
2021/11/10 09:43:49;;;;;;;21.50;16.27;;;8.20;99.90;;;;;;5031524;28;20435;-48
2021/11/10 09:46:16;;;;;;;33.60;18.07;;;8.20;99.90;;;;;;5031722;28;20776;-50
2021/11/10 09:48:45;;;;;;;21.10;15.53;;;8.20;99.90;;;;;;5031148;28;20437;-49
2021/11/10 09:51:13;;;;;;;21.80;17.53;;;8.30;99.90;;;;;;5031774;28;20458;-49
2021/11/10 09:53:40;;;;;;;23.43;16.80;;;8.20;99.90;;;;;;5031346;28;20819;-51
2021/11/10 09:56:07;;;;;;;21.23;17.23;;;8.20;99.90;;;;;;5031346;28;20438;-50
2021/11/10 09:58:34;;;;;;;21.87;16.77;;;8.40;99.90;;;;;;5031098;28;20902;-51
2021/11/10 10:01:04;;;;;;;28.33;16.50;;;8.50;99.90;;;;;;5031075;28;20428;-50
2021/11/10 10:03:31;;;;;;;23.93;17.57;;;7.90;99.90;;;;;;5031935;28;20492;-49
2021/11/10 10:05:58;;;;;;;20.17;15.00;;;8.30;99.90;;;;;;5031293;28;20546;-52
2021/11/10 10:08:27;;;;;;;18.13;14.70;;;8.30;99.90;;;;;;5030776;28;20423;-50
2021/11/10 10:10:54;;;;;;;18.63;16.10;;;8.30;99.90;;;;;;5031053;28;20448;-51
2021/11/10 10:13:22;;;;;;;24.33;17.50;;;8.30;99.90;;;;;;5031163;28;20445;-51
2021/11/10 10:15:50;;;;;;;16.47;13.47;;;8.80;99.90;;;;;;5030536;28;20530;-49
2021/11/10 10:18:19;;;;;;;17.30;14.03;;;8.40;99.90;;;;;;5030500;28;20458;-49
2021/11/10 10:20:46;;;;;;;20.43;14.97;;;9.00;99.90;;;;;;5028777;28;20479;-49
2021/11/10 10:23:16;;;;;;;20.47;14.00;;;9.10;99.90;;;;;;5030724;28;20413;-50
2021/11/10 10:25:46;;;;;;;17.33;14.73;;;9.10;99.90;;;;;;5033255;28;20413;-50
2021/11/10 10:28:16;;;;;;;23.80;15.13;;;8.60;99.90;;;;;;5034679;28;20439;-50
2021/11/10 10:30:45;;;;;;;17.00;14.30;;;8.60;99.90;;;;;;5033642;28;20466;-50
2021/11/10 10:33:13;;;;;;;19.23;14.00;;;9.10;99.90;;;;;;5033658;28;20818;-50
2021/11/10 10:35:44;;;;;;;17.90;14.50;;;9.20;99.90;;;;;;5033280;28;21086;-50
2021/11/10 10:38:14;;;;;;;19.93;14.13;;;9.20;99.90;;;;;;5034750;28;20435;-50
2021/11/10 10:40:44;;;;;;;19.27;13.63;;;8.90;99.90;;;;;;5034741;28;20430;-50
2021/11/10 10:43:11;;;;;;;18.80;13.43;;;9.80;99.90;;;;;;5034587;28;20424;-50
2021/11/10 10:45:40;;;;;;;19.40;14.70;;;9.80;99.90;;;;;;5034504;28;20429;-49
2021/11/10 10:48:10;;;;;;;20.07;13.83;;;9.80;99.90;;;;;;5034275;28;20875;-50
2021/11/10 10:50:42;;;;;;;21.90;14.30;;;10.00;99.90;;;;;;5034130;28;20550;-50
2021/11/10 10:53:11;;;;;;;22.70;13.67;;;9.70;99.90;;;;;;5034301;28;20522;-49
2021/11/10 10:55:40;;;;;;;18.37;14.70;;;9.30;99.90;;;;;;5033711;28;20475;-49
2021/11/10 10:58:10;;;;;;;15.17;12.53;;;9.70;99.90;;;;;;5033781;28;20450;-50
2021/11/10 11:00:38;;;;;;;23.07;14.20;;;9.50;99.90;;;;;;5034385;28;20458;-49
2021/11/10 11:03:25;;;;;;;18.50;13.77;;;9.30;99.90;;;;;;5034567;28;20432;-52
2021/11/10 11:05:53;;;;;;;17.97;13.87;;;9.80;99.90;;;;;;5034172;28;20467;-51
2021/11/10 11:08:40;;;;;;;16.20;13.40;;;9.60;99.90;;;;;;5033720;28;20427;-50
2021/11/10 11:11:33;;;;;;;19.30;14.60;;;10.00;99.90;;;;;;5028890;28;20486;-49
2021/11/10 11:14:01;;;;;;;19.47;15.10;;;10.00;99.90;;;;;;5033853;28;21016;-49
2021/11/10 11:16:37;;;;;;;18.13;14.83;;;9.70;99.90;;;;;;5034181;28;20446;-51
2021/11/10 11:19:15;;;;;;;19.27;14.13;;;10.20;99.90;;;;;;5033587;28;20493;-51
2021/11/10 11:21:55;;;;;;;25.63;14.50;;;9.90;99.90;;;;;;5034023;28;20448;-51
2021/11/10 11:24:34;;;;;;;16.23;14.47;;;10.00;99.90;;;;;;5034014;28;20435;-51
2021/11/10 11:27:19;;;;;;;28.37;14.40;;;9.70;99.90;;;;;;5034259;28;20447;-49
2021/11/10 11:30:08;;;;;;;22.07;14.00;;;10.10;99.90;;;;;;5033599;28;20442;-50
2021/11/10 11:32:37;;;;;;;17.10;14.60;;;10.30;99.90;;;;;;5032119;28;20562;-50
2021/11/10 11:35:09;;;;;;;23.10;15.10;;;10.50;99.90;;;;;;5033263;28;20460;-50
2021/11/10 11:37:36;;;;;;;21.50;15.30;;;10.20;99.90;;;;;;5032684;28;20522;-50
2021/11/10 11:40:06;;;;;;;21.00;14.73;;;10.00;99.90;;;;;;5033391;28;20432;-50
2021/11/10 11:42:33;;;;;;;20.77;15.57;;;9.60;99.90;;;;;;5032928;28;20438;-52
2021/11/10 11:45:02;;;;;;;20.33;15.27;;;9.90;99.90;;;;;;5033343;28;20920;-51
2021/11/10 11:47:29;;;;;;;19.70;15.00;;;10.60;99.90;;;;;;5033072;28;20570;-51
2021/11/10 11:50:02;;;;;;;17.77;15.87;;;10.10;99.90;;;;;;5033342;28;20463;-51
2021/11/10 11:52:29;;;;;;;21.73;15.80;;;10.00;99.90;;;;;;5033060;28;20406;-51
2021/11/10 11:54:59;;;;;;;21.40;16.40;;;10.20;99.90;;;;;;5033019;28;20490;-51
2021/11/10 11:57:27;;;;;;;20.90;16.17;;;10.00;99.90;;;;;;5032989;28;20435;-51
2021/11/10 11:59:57;;;;;;;24.93;16.17;;;9.90;99.90;;;;;;5032417;28;20435;-51
2021/11/10 12:02:36;;;;;;;22.20;16.00;;;10.20;99.90;;;;;;5033501;28;20459;-49
2021/11/10 12:05:13;;;;;;;17.50;15.30;;;10.10;99.90;;;;;;5031530;28;20456;-51
2021/11/10 12:07:47;;;;;;;20.07;16.00;;;10.20;99.90;;;;;;5032952;28;20430;-50
2021/11/10 12:10:37;;;;;;;20.73;16.13;;;10.40;99.90;;;;;;5032648;28;20444;-50
2021/11/10 12:13:19;;;;;;;21.70;16.23;;;10.30;99.90;;;;;;5032783;28;20784;-51
2021/11/10 12:16:15;;;;;;;21.60;15.80;;;10.20;99.90;;;;;;5032888;28;20449;-51
2021/11/10 12:18:55;;;;;;;18.20;15.20;;;10.50;99.90;;;;;;5032142;28;20432;-50
2021/11/10 12:21:30;;;;;;;18.70;14.63;;;10.20;99.90;;;;;;5032473;28;20441;-51
2021/11/10 12:24:12;;;;;;;19.30;16.27;;;10.50;99.90;;;;;;5032623;28;20422;-52
2021/11/10 12:27:10;;;;;;;20.93;17.97;;;10.40;99.90;;;;;;5032717;28;20443;-51
2021/11/10 12:29:58;;;;;;;22.20;16.70;;;10.20;99.90;;;;;;5032650;28;20440;-51
2021/11/10 12:32:42;;;;;;;20.77;16.07;;;10.10;99.90;;;;;;5032918;28;20844;-51
2021/11/10 12:35:20;;;;;;;20.40;15.27;;;9.90;99.90;;;;;;5032777;28;20480;-51
2021/11/10 12:37:49;;;;;;;20.00;15.37;;;10.10;99.90;;;;;;5032277;28;20406;-50
2021/11/10 12:40:20;;;;;;;23.03;16.00;;;10.20;99.90;;;;;;5032570;28;20941;-51
2021/11/10 12:42:54;;;;;;;22.10;16.30;;;10.20;99.90;;;;;;5032292;28;20506;-51
2021/11/10 12:45:27;;;;;;;19.17;15.47;;;10.00;99.90;;;;;;5032281;28;20526;-51